createdAt,value
2022-08-26T00:00:58.427Z,101527.19
2022-08-26T00:06:00.505Z,101518.44
2022-08-26T00:11:02.885Z,101534.97
2022-08-26T00:16:05.745Z,101534.38
2022-08-26T00:21:09.986Z,101536.34
2022-08-26T00:26:12.651Z,101538.47
2022-08-26T00:31:14.208Z,101536.78
2022-08-26T00:36:20.305Z,101542.97
2022-08-26T00:41:22.163Z,101536.56
2022-08-26T00:46:28.900Z,101540.41
2022-08-26T00:51:31.462Z,101542.75
2022-08-26T00:56:36.391Z,101545.34
2022-08-26T01:01:41.250Z,101550.66
2022-08-26T01:06:44.298Z,101535.31
2022-08-26T01:11:49.486Z,101543.41
2022-08-26T01:16:51.110Z,101541.97
2022-08-26T01:22:10.579Z,101539.78
2022-08-26T01:27:17.583Z,101537.47
2022-08-26T01:32:22.439Z,101543.66
2022-08-26T01:37:29.202Z,101561.00
2022-08-26T01:42:30.792Z,101555.03
2022-08-26T01:47:36.029Z,101555.03
2022-08-26T01:52:42.697Z,101551.41
2022-08-26T01:57:46.445Z,101565.03
2022-08-26T02:02:50.266Z,101547.72
2022-08-26T02:07:51.818Z,101544.53
2022-08-26T02:12:53.341Z,101544.16
2022-08-26T02:17:54.854Z,101535.63
2022-08-26T02:22:59.098Z,101542.47
2022-08-26T02:28:00.809Z,101544.00
2022-08-26T02:33:05.740Z,101549.53
2022-08-26T02:38:10.030Z,101552.75
2022-08-26T02:43:12.658Z,101552.13
2022-08-26T02:48:18.837Z,101547.63
2022-08-26T02:53:25.027Z,101549.13
2022-08-26T02:58:27.199Z,101544.66
2022-08-26T03:03:28.820Z,101546.09
2022-08-26T03:08:32.030Z,101547.41
2022-08-26T03:13:33.561Z,101551.28
2022-08-26T03:18:35.206Z,101546.81
2022-08-26T03:23:38.470Z,101549.19
2022-08-26T03:29:00.209Z,101549.44
2022-08-26T03:34:01.775Z,101546.88
2022-08-26T03:39:03.422Z,101544.97
2022-08-26T03:44:08.753Z,101545.63
2022-08-26T03:49:10.940Z,101535.78
2022-08-26T03:54:12.469Z,101547.34
2022-08-26T03:59:14.101Z,101544.38
2022-08-26T04:04:15.987Z,101550.38
2022-08-26T04:09:21.046Z,101537.59
2022-08-26T04:14:24.607Z,101532.88
2022-08-26T04:19:26.167Z,101533.31
2022-08-26T04:24:28.351Z,101530.97
2022-08-26T04:29:30.101Z,101539.28
2022-08-26T04:34:32.782Z,101535.41
2022-08-26T04:39:35.161Z,101539.03
2022-08-26T04:44:37.598Z,101541.03
2022-08-26T04:49:39.099Z,101540.59
2022-08-26T04:54:42.021Z,101544.88
2022-08-26T04:59:43.669Z,101548.75
2022-08-26T05:04:45.543Z,101554.53
2022-08-26T05:09:47.015Z,101553.22
2022-08-26T05:14:48.552Z,101550.63
2022-08-26T05:19:52.918Z,101563.91
2022-08-26T05:24:54.415Z,101555.81
2022-08-26T05:29:57.426Z,101562.63
2022-08-26T05:34:59.485Z,101574.38
2022-08-26T05:40:04.559Z,101572.84
2022-08-26T05:45:06.680Z,101572.44
2022-08-26T05:50:08.771Z,101572.63
2022-08-26T05:55:10.256Z,101572.22
2022-08-26T06:00:15.469Z,101583.31
2022-08-26T06:05:18.233Z,101579.69
2022-08-26T06:10:31.960Z,101585.63
2022-08-26T06:15:35.510Z,101578.16
2022-08-26T06:20:37.549Z,101591.38
2022-08-26T06:25:39.460Z,101597.53
2022-08-26T06:30:41.429Z,101611.41
2022-08-26T06:35:43.693Z,101606.88
2022-08-26T06:40:48.663Z,101610.94
2022-08-26T06:45:51.036Z,101620.38
2022-08-26T06:51:05.180Z,101623.81
2022-08-26T06:56:09.522Z,101637.25
2022-08-26T07:01:29.309Z,101629.38
2022-08-26T07:06:35.685Z,101630.59
2022-08-26T07:11:40.660Z,101635.63
2022-08-26T07:16:42.492Z,101636.44
2022-08-26T07:21:44.574Z,101631.41
2022-08-26T07:26:46.102Z,101639.53
2022-08-26T07:31:49.501Z,101636.59
2022-08-26T07:36:51.620Z,101641.09
2022-08-26T07:41:54.158Z,101648.38
2022-08-26T07:46:56.073Z,101659.50
2022-08-26T07:51:58.872Z,101669.94
2022-08-26T07:57:00.481Z,101674.88
2022-08-26T08:02:06.702Z,101664.63
2022-08-26T08:07:11.602Z,101671.72
2022-08-26T08:12:14.156Z,101673.25
2022-08-26T08:17:16.570Z,101684.78
2022-08-26T08:22:19.817Z,101683.88
2022-08-26T08:27:24.047Z,101694.94
2022-08-26T08:32:25.764Z,101691.97
2022-08-26T08:37:27.255Z,101690.69
2022-08-26T08:42:58.016Z,101686.38
2022-08-26T08:48:06.782Z,101689.28
2022-08-26T08:53:16.463Z,101697.81
2022-08-26T08:58:20.977Z,101702.06
2022-08-26T09:03:48.585Z,101709.97
2022-08-26T09:08:51.224Z,101704.84
2022-08-26T09:13:54.535Z,101705.75
2022-08-26T09:19:03.904Z,101724.38
2022-08-26T09:24:06.461Z,101717.13
2022-08-26T09:29:14.623Z,101714.16
2022-08-26T09:34:17.073Z,101707.50
2022-08-26T09:39:27.815Z,101703.44
2022-08-26T09:44:29.331Z,101713.28
2022-08-26T09:49:39.621Z,101718.06
2022-08-26T09:54:44.437Z,101735.69
2022-08-26T09:59:49.298Z,101732.91
2022-08-26T10:04:54.270Z,101717.91
2022-08-26T10:09:55.840Z,101724.09
2022-08-26T10:15:03.124Z,101695.44
2022-08-26T10:20:22.856Z,101715.91
2022-08-26T10:25:32.559Z,101713.28
2022-08-26T10:30:50.383Z,101734.75
2022-08-26T10:35:55.768Z,101727.78
2022-08-26T10:41:16.813Z,101704.84
2022-08-26T10:46:22.453Z,101704.88
2022-08-26T10:51:36.313Z,101713.69
2022-08-26T10:56:37.750Z,101717.44
2022-08-26T11:01:42.130Z,101725.63
2022-08-26T11:06:46.820Z,101733.00
2022-08-26T11:11:50.433Z,101733.09
2022-08-26T11:16:54.113Z,101726.44
2022-08-26T11:22:18.146Z,101730.09
2022-08-26T11:27:28.715Z,101726.28
2022-08-26T11:32:39.439Z,101719.50
2022-08-26T11:37:41.350Z,101721.00
2022-08-26T11:42:57.169Z,101726.75
2022-08-26T11:48:16.660Z,101723.31
2022-08-26T11:53:18.571Z,101716.34
2022-08-26T11:58:23.334Z,101713.75
2022-08-26T12:03:51.019Z,101707.56
2022-08-26T12:08:55.467Z,101711.78
2022-08-26T12:14:15.951Z,101708.16
2022-08-26T12:19:32.967Z,101721.41
2022-08-26T12:24:35.675Z,101718.63
2022-08-26T12:29:37.203Z,101714.22
2022-08-26T12:34:42.453Z,101720.19
2022-08-26T12:39:44.889Z,101740.50
2022-08-26T12:44:53.257Z,101743.16
2022-08-26T12:50:07.036Z,101751.91
2022-08-26T12:55:22.069Z,101751.16
2022-08-26T13:00:36.710Z,101752.13
2022-08-26T13:05:38.250Z,101744.22
2022-08-26T13:10:42.633Z,101737.81
2022-08-26T13:15:44.729Z,101742.78
2022-08-26T13:20:46.271Z,101732.16
2022-08-26T13:25:47.754Z,101745.44
2022-08-26T13:30:49.709Z,101746.50
2022-08-26T13:35:51.221Z,101736.25
2022-08-26T13:40:52.770Z,101734.94
2022-08-26T13:45:54.857Z,101732.44
2022-08-26T13:50:56.447Z,101734.78
2022-08-26T13:55:59.046Z,101737.34
2022-08-26T14:01:05.066Z,101731.97
2022-08-26T14:06:06.641Z,101740.91
2022-08-26T14:11:08.891Z,101735.34
2022-08-26T14:16:15.122Z,101741.56
2022-08-26T14:21:16.781Z,101736.91
2022-08-26T14:26:29.126Z,101735.47
2022-08-26T14:31:32.995Z,101722.84
2022-08-26T14:36:35.204Z,101730.34
2022-08-26T14:41:43.814Z,101730.28
2022-08-26T14:46:50.365Z,101721.25
2022-08-26T14:51:51.911Z,101719.59
2022-08-26T14:57:00.349Z,101723.69
2022-08-26T15:02:02.886Z,101710.50
2022-08-26T15:07:04.983Z,101730.16
2022-08-26T15:12:06.551Z,101716.72
2022-08-26T15:17:08.165Z,101725.84
2022-08-26T15:22:09.701Z,101725.56
2022-08-26T15:27:11.314Z,101729.47
2022-08-26T15:32:13.497Z,101722.13
2022-08-26T15:37:15.024Z,101727.13
2022-08-26T15:42:17.621Z,101727.41
2022-08-26T15:47:19.713Z,101724.47
2022-08-26T15:52:21.316Z,101723.84
2022-08-26T15:57:22.853Z,101728.09
2022-08-26T16:02:26.480Z,101730.09
2022-08-26T16:07:31.907Z,101725.06
2022-08-26T16:12:33.408Z,101716.50
2022-08-26T16:17:35.076Z,101711.78
2022-08-26T16:22:36.590Z,101712.00
2022-08-26T16:27:38.174Z,101709.03
2022-08-26T16:32:40.893Z,101707.38
2022-08-26T16:37:42.613Z,101708.88
2022-08-26T16:42:44.114Z,101695.66
2022-08-26T16:47:46.023Z,101696.31
2022-08-26T16:52:51.637Z,101705.72
2022-08-26T16:57:57.326Z,101703.41
2022-08-26T17:03:00.997Z,101715.63
2022-08-26T17:08:03.796Z,101702.84
2022-08-26T17:13:05.314Z,101713.09
2022-08-26T17:18:07.841Z,101706.06
2022-08-26T17:23:09.471Z,101720.78
2022-08-26T17:28:13.505Z,101719.94
2022-08-26T17:33:15.232Z,101728.03
2022-08-26T17:38:21.952Z,101738.72
2022-08-26T17:43:26.688Z,101739.78
2022-08-26T17:48:28.252Z,101740.41
2022-08-26T17:53:29.785Z,101726.78
2022-08-26T17:58:31.305Z,101747.25
2022-08-26T18:03:36.500Z,101745.13
2022-08-26T18:08:40.088Z,101749.19
2022-08-26T18:13:47.021Z,101751.28
2022-08-26T18:18:53.161Z,101758.72
2022-08-26T18:23:54.750Z,101757.66
2022-08-26T18:28:56.985Z,101757.66
2022-08-26T18:34:00.469Z,101767.47
2022-08-26T18:39:03.700Z,101766.59
2022-08-26T18:44:05.321Z,101760.63
2022-08-26T18:49:08.021Z,101767.16
2022-08-26T18:54:10.477Z,101772.69
2022-08-26T18:59:12.990Z,101771.16
2022-08-26T19:04:15.494Z,101771.09
2022-08-26T19:09:18.779Z,101765.09
2022-08-26T19:14:22.402Z,101768.69
2022-08-26T19:19:24.065Z,101777.38
2022-08-26T19:24:26.040Z,101785.22
2022-08-26T19:29:33.815Z,101783.50
2022-08-26T19:34:36.296Z,101781.84
2022-08-26T19:39:37.868Z,101793.31
2022-08-26T19:44:58.105Z,101781.41
2022-08-26T19:49:59.616Z,101782.25
2022-08-26T19:55:04.560Z,101778.63
2022-08-26T20:00:11.189Z,101776.06
2022-08-26T20:05:15.124Z,101789.91
2022-08-26T20:10:21.024Z,101770.91
2022-08-26T20:15:23.012Z,101783.50
2022-08-26T20:20:42.862Z,101774.13
2022-08-26T20:25:46.599Z,101779.31
2022-08-26T20:30:48.110Z,101775.91
2022-08-26T20:35:49.624Z,101775.31
2022-08-26T20:40:51.153Z,101770.63
2022-08-26T20:45:55.685Z,101777.00
2022-08-26T20:50:59.181Z,101780.22
2022-08-26T20:56:02.961Z,101771.25
2022-08-26T21:01:07.996Z,101773.16
2022-08-26T21:06:10.325Z,101759.91
2022-08-26T21:11:12.380Z,101767.28
2022-08-26T21:16:14.047Z,101765.84
2022-08-26T21:21:15.703Z,101777.41
2022-08-26T21:26:17.239Z,101769.88
2022-08-26T21:31:23.378Z,101772.03
2022-08-26T21:36:25.076Z,101770.00
2022-08-26T21:41:27.768Z,101773.09
2022-08-26T21:46:30.011Z,101776.47
2022-08-26T21:51:34.633Z,101775.81
2022-08-26T21:56:39.801Z,101769.84
2022-08-26T22:01:41.516Z,101781.75
2022-08-26T22:06:46.528Z,101785.22
2022-08-26T22:11:48.006Z,101775.94
2022-08-26T22:16:50.503Z,101781.31
2022-08-26T22:21:54.431Z,101776.84
2022-08-26T22:26:56.772Z,101779.06
2022-08-26T22:31:58.337Z,101782.81
2022-08-26T22:36:59.862Z,101786.72
2022-08-26T22:42:01.702Z,101786.44
2022-08-26T22:47:03.525Z,101781.31
2022-08-26T22:52:05.208Z,101780.44
2022-08-26T22:57:06.907Z,101776.34
2022-08-26T23:02:08.399Z,101778.66
2022-08-26T23:07:13.477Z,101773.72
2022-08-26T23:12:14.969Z,101774.38
2022-08-26T23:17:16.519Z,101776.75
2022-08-26T23:22:18.295Z,101773.00
2022-08-26T23:27:19.834Z,101771.59
2022-08-26T23:32:21.793Z,101777.66
2022-08-26T23:37:24.083Z,101765.88
2022-08-26T23:42:27.865Z,101764.44
2022-08-26T23:47:31.414Z,101766.22
2022-08-26T23:52:51.584Z,101754.03
2022-08-26T23:57:53.110Z,101762.59
